createdAt,value
2022-12-04T00:02:11.133Z,-1.05
2022-12-04T00:04:37.750Z,-1.09
2022-12-04T00:07:04.790Z,-1.21
2022-12-04T00:09:31.203Z,-1.18
2022-12-04T00:11:58.660Z,-1.06
2022-12-04T00:14:25.080Z,-1.09
2022-12-04T00:16:51.643Z,-1.13
2022-12-04T00:19:18.255Z,-1.21
2022-12-04T00:21:45.243Z,-1.14
2022-12-04T00:24:12.547Z,-1.10
2022-12-04T00:26:39.060Z,-1.07
2022-12-04T00:29:05.686Z,-1.20
2022-12-04T00:31:32.445Z,-1.21
2022-12-04T00:34:00.359Z,-1.30
2022-12-04T00:36:29.011Z,-1.25
2022-12-04T00:38:56.415Z,-1.33
2022-12-04T00:41:25.034Z,-1.31
2022-12-04T00:43:52.510Z,-1.17
2022-12-04T00:46:19.487Z,-1.28
2022-12-04T00:48:46.344Z,-1.15
2022-12-04T00:51:21.024Z,-1.24
2022-12-04T00:53:48.002Z,-1.18
2022-12-04T00:56:18.684Z,-1.25
2022-12-04T00:58:45.774Z,-1.21
2022-12-04T01:01:18.403Z,-1.24
2022-12-04T01:03:45.370Z,-1.15
2022-12-04T01:06:25.375Z,-1.27
2022-12-04T01:08:54.395Z,-1.25
2022-12-04T01:11:22.621Z,-1.29
2022-12-04T01:13:49.414Z,-1.22
2022-12-04T01:16:17.937Z,-1.17
2022-12-04T01:18:44.861Z,-1.22
2022-12-04T01:21:12.148Z,-1.34
2022-12-04T01:23:38.728Z,-1.29
2022-12-04T01:26:05.733Z,-1.27
2022-12-04T01:28:32.479Z,-1.35
2022-12-04T01:31:06.206Z,-1.24
2022-12-04T01:33:35.043Z,-1.24
2022-12-04T01:36:05.956Z,-1.23
2022-12-04T01:38:33.656Z,-1.25
2022-12-04T01:41:00.331Z,-1.25
2022-12-04T01:43:28.798Z,-1.33
2022-12-04T01:45:57.005Z,-1.21
2022-12-04T01:48:52.715Z,-1.23
2022-12-04T01:51:25.182Z,-1.23
2022-12-04T01:53:55.941Z,-1.17
2022-12-04T01:56:27.502Z,-1.20
2022-12-04T01:58:58.871Z,-1.20
2022-12-04T02:01:29.158Z,-1.22
2022-12-04T02:03:55.904Z,-1.21
2022-12-04T02:06:22.418Z,-1.34
2022-12-04T02:08:48.855Z,-1.31
2022-12-04T02:11:45.397Z,-1.27
2022-12-04T02:14:46.451Z,-1.28
2022-12-04T02:17:19.130Z,-1.38
2022-12-04T02:20:04.661Z,-1.28
2022-12-04T02:22:45.412Z,-1.28
2022-12-04T02:25:52.023Z,-1.31
2022-12-04T02:28:46.311Z,-1.41
2022-12-04T02:31:19.250Z,-1.31
2022-12-04T02:33:54.084Z,-1.31
2022-12-04T02:36:28.649Z,-1.33
2022-12-04T02:39:10.719Z,-1.25
2022-12-04T02:41:46.989Z,-1.32
2022-12-04T02:44:23.789Z,-1.26
2022-12-04T02:46:57.164Z,-1.27
2022-12-04T02:49:37.664Z,-1.31
2022-12-04T02:52:10.054Z,-1.28
2022-12-04T02:54:41.346Z,-1.32
2022-12-04T02:57:13.906Z,-1.38
2022-12-04T02:59:45.395Z,-1.33
2022-12-04T03:02:23.433Z,-1.31
2022-12-04T03:04:51.917Z,-1.28
2022-12-04T03:07:26.038Z,-1.23
2022-12-04T03:09:59.409Z,-1.29
2022-12-04T03:12:50.243Z,-1.34
2022-12-04T03:15:23.330Z,-1.32
2022-12-04T03:18:01.855Z,-1.31
2022-12-04T03:20:32.479Z,-1.21
2022-12-04T03:23:09.674Z,-1.23
2022-12-04T03:25:47.436Z,-1.20
2022-12-04T03:28:32.380Z,-1.23
2022-12-04T03:31:05.744Z,-1.28
2022-12-04T03:33:41.845Z,-1.29
2022-12-04T03:36:18.444Z,-1.24
2022-12-04T03:38:54.364Z,-1.22
2022-12-04T03:41:27.033Z,-1.16
2022-12-04T03:44:13.124Z,-1.32
2022-12-04T03:46:54.818Z,-1.20
2022-12-04T03:49:31.734Z,-1.23
2022-12-04T03:52:16.947Z,-1.15
2022-12-04T03:54:53.695Z,-1.21
2022-12-04T03:57:27.352Z,-1.19
2022-12-04T04:00:08.754Z,-1.17
2022-12-04T04:02:39.690Z,-1.19
2022-12-04T04:05:09.851Z,-1.28
2022-12-04T04:08:18.589Z,-1.27
2022-12-04T04:10:45.579Z,-1.10
2022-12-04T04:13:35.538Z,-1.17
2022-12-04T04:16:24.404Z,-1.18
2022-12-04T04:19:11.816Z,-1.22
2022-12-04T04:22:07.919Z,-1.16
2022-12-04T04:24:34.695Z,-1.12
2022-12-04T04:27:01.760Z,-1.08
2022-12-04T04:29:28.388Z,-1.16
2022-12-04T04:32:03.594Z,-1.14
2022-12-04T04:34:57.875Z,-1.06
2022-12-04T04:37:30.607Z,-1.08
2022-12-04T04:40:05.834Z,-1.07
2022-12-04T04:42:48.651Z,-1.07
2022-12-04T04:45:25.613Z,-1.06
2022-12-04T04:48:00.779Z,-1.14
2022-12-04T04:50:28.919Z,-1.02
2022-12-04T04:53:01.312Z,-1.00
2022-12-04T04:55:28.991Z,-0.99
2022-12-04T04:58:07.050Z,-0.89
2022-12-04T05:00:33.691Z,-0.94
2022-12-04T05:03:00.243Z,-0.96
2022-12-04T05:05:26.747Z,-1.04
2022-12-04T05:07:53.272Z,-0.98
2022-12-04T05:10:19.753Z,-0.99
2022-12-04T05:12:46.230Z,-0.92
2022-12-04T05:15:12.692Z,-0.93
2022-12-04T05:17:39.131Z,-1.01
2022-12-04T05:20:06.436Z,-0.96
2022-12-04T05:22:34.957Z,-0.95
2022-12-04T05:25:02.705Z,-1.02
2022-12-04T05:27:30.276Z,-0.88
2022-12-04T05:29:58.380Z,-0.95
2022-12-04T05:32:27.431Z,-0.94
2022-12-04T05:34:55.518Z,-0.89
2022-12-04T05:37:23.042Z,-0.93
2022-12-04T05:39:49.546Z,-0.93
2022-12-04T05:42:16.062Z,-0.95
2022-12-04T05:44:42.671Z,-0.86
2022-12-04T05:47:09.268Z,-0.83
2022-12-04T05:49:36.115Z,-0.84
2022-12-04T05:52:04.787Z,-0.85
2022-12-04T05:54:31.766Z,-0.89
2022-12-04T05:56:58.399Z,-0.94
2022-12-04T05:59:24.828Z,-0.85
2022-12-04T06:01:51.372Z,-0.91
2022-12-04T06:04:17.822Z,-0.87
2022-12-04T06:06:44.331Z,-0.83
2022-12-04T06:09:11.929Z,-0.88
2022-12-04T06:11:39.888Z,-0.87
2022-12-04T06:14:08.803Z,-0.88
2022-12-04T06:16:38.091Z,-0.87
2022-12-04T06:19:11.289Z,-0.85
2022-12-04T06:21:40.351Z,-0.87
2022-12-04T06:24:07.790Z,-0.81
2022-12-04T06:26:34.733Z,-0.79
2022-12-04T06:29:02.325Z,-0.71
2022-12-04T06:31:29.848Z,-0.82
2022-12-04T06:33:57.699Z,-0.78
2022-12-04T06:36:24.993Z,-0.84
2022-12-04T06:38:54.311Z,-0.81
2022-12-04T06:41:21.681Z,-0.77
2022-12-04T06:43:48.830Z,-0.70
2022-12-04T06:46:18.783Z,-0.79
2022-12-04T06:48:45.466Z,-0.81
2022-12-04T06:51:15.016Z,-0.76
2022-12-04T06:53:42.523Z,-0.68
2022-12-04T06:56:12.816Z,-0.79
2022-12-04T06:58:39.222Z,-0.83
2022-12-04T07:01:08.101Z,-0.75
2022-12-04T07:03:34.864Z,-0.74
2022-12-04T07:06:16.566Z,-0.81
2022-12-04T07:08:45.079Z,-0.76
2022-12-04T07:11:12.439Z,-0.70
2022-12-04T07:13:39.779Z,-0.62
2022-12-04T07:16:08.187Z,-0.66
2022-12-04T07:18:36.294Z,-0.68
2022-12-04T07:21:12.091Z,-0.68
2022-12-04T07:23:38.644Z,-0.63
2022-12-04T07:26:10.232Z,-0.62
2022-12-04T07:28:37.682Z,-0.68
2022-12-04T07:31:09.302Z,-0.74
2022-12-04T07:33:36.499Z,-0.74
2022-12-04T07:36:05.284Z,-0.70
2022-12-04T07:38:32.857Z,-0.77
2022-12-04T07:41:00.021Z,-0.64
2022-12-04T07:43:29.912Z,-0.68
2022-12-04T07:45:59.093Z,-0.57
2022-12-04T07:48:30.181Z,-0.73
2022-12-04T07:51:07.219Z,-0.74
2022-12-04T07:53:34.854Z,-0.68
2022-12-04T07:56:02.981Z,-0.62
2022-12-04T07:58:29.494Z,-0.62
2022-12-04T08:00:56.124Z,-0.56
2022-12-04T08:03:22.627Z,-0.69
2022-12-04T08:05:49.102Z,-0.67
2022-12-04T08:08:15.545Z,-0.64
2022-12-04T08:10:42.112Z,-0.63
2022-12-04T08:13:08.625Z,-0.60
2022-12-04T08:15:35.346Z,-0.51
2022-12-04T08:18:01.773Z,-0.50
2022-12-04T08:20:28.283Z,-0.45
2022-12-04T08:22:54.818Z,-0.54
2022-12-04T08:25:21.274Z,-0.45
2022-12-04T08:27:47.987Z,-0.54
2022-12-04T08:30:14.554Z,-0.53
2022-12-04T08:32:41.105Z,-0.56
2022-12-04T08:35:08.070Z,-0.57
2022-12-04T08:37:35.039Z,-0.46
2022-12-04T08:40:02.904Z,-0.46
2022-12-04T08:42:29.375Z,-0.40
2022-12-04T08:44:55.825Z,-0.39
2022-12-04T08:47:22.396Z,-0.42
2022-12-04T08:49:48.874Z,-0.43
2022-12-04T08:52:15.421Z,-0.48
2022-12-04T08:54:41.871Z,-0.41
2022-12-04T08:57:08.387Z,-0.32
2022-12-04T08:59:35.271Z,-0.39
2022-12-04T09:02:01.815Z,-0.41
2022-12-04T09:04:28.458Z,-0.26
2022-12-04T09:06:54.975Z,-0.42
2022-12-04T09:09:21.483Z,-0.33
2022-12-04T09:11:48.478Z,-0.44
2022-12-04T09:14:14.959Z,-0.37
2022-12-04T09:16:41.666Z,-0.34
2022-12-04T09:19:08.179Z,-0.27
2022-12-04T09:21:34.797Z,-0.32
2022-12-04T09:24:01.865Z,-0.34
2022-12-04T09:26:31.098Z,-0.27
2022-12-04T09:28:59.696Z,-0.38
2022-12-04T09:31:26.614Z,-0.33
2022-12-04T09:33:53.791Z,-0.33
2022-12-04T09:36:20.877Z,-0.41
2022-12-04T09:38:52.808Z,-0.29
2022-12-04T09:41:38.091Z,-0.30
2022-12-04T09:44:32.432Z,-0.38
2022-12-04T09:47:00.535Z,-0.31
2022-12-04T09:49:48.662Z,-0.39
2022-12-04T09:52:40.215Z,-0.35
2022-12-04T09:55:14.124Z,-0.33
2022-12-04T09:57:49.974Z,-0.30
2022-12-04T10:00:19.717Z,-0.31
2022-12-04T10:03:04.110Z,-0.29
2022-12-04T10:05:55.263Z,-0.24
2022-12-04T10:08:37.864Z,-0.26
2022-12-04T10:11:24.683Z,-0.32
2022-12-04T10:14:31.902Z,-0.26
2022-12-04T10:17:32.529Z,-0.34
2022-12-04T10:20:33.231Z,-0.24
2022-12-04T10:23:14.414Z,-0.21
2022-12-04T10:25:42.802Z,-0.32
2022-12-04T10:28:23.679Z,-0.30
2022-12-04T10:30:52.826Z,-0.22
2022-12-04T10:33:37.899Z,-0.16
2022-12-04T10:36:06.181Z,-0.20
2022-12-04T10:38:39.116Z,-0.22
2022-12-04T10:41:17.906Z,-0.29
2022-12-04T10:43:46.808Z,-0.23
2022-12-04T10:46:18.210Z,-0.26
2022-12-04T10:48:48.567Z,-0.24
2022-12-04T10:51:21.387Z,-0.21
2022-12-04T10:53:49.384Z,-0.25
2022-12-04T10:56:24.279Z,-0.23
2022-12-04T10:59:05.665Z,-0.13
2022-12-04T11:01:34.338Z,-0.14
2022-12-04T11:04:09.179Z,-0.25
2022-12-04T11:06:35.973Z,-0.19
2022-12-04T11:09:04.248Z,-0.21
2022-12-04T11:11:34.158Z,-0.13
2022-12-04T11:14:07.294Z,-0.11
2022-12-04T11:16:48.175Z,-0.12
2022-12-04T11:19:26.039Z,-0.14
2022-12-04T11:21:58.753Z,-0.17
2022-12-04T11:24:25.147Z,-0.21
2022-12-04T11:26:52.391Z,-0.16
2022-12-04T11:29:21.914Z,-0.10
2022-12-04T11:31:54.760Z,-0.20
2022-12-04T11:34:25.011Z,-0.10
2022-12-04T11:36:57.527Z,-0.15
2022-12-04T11:39:35.913Z,-0.13
2022-12-04T11:42:12.570Z,-0.19
2022-12-04T11:44:40.389Z,-0.15
2022-12-04T11:47:17.410Z,-0.13
2022-12-04T11:49:44.108Z,-0.09
2022-12-04T11:52:35.010Z,-0.04
2022-12-04T11:55:09.155Z,-0.03
2022-12-04T11:58:13.093Z,-0.05
2022-12-04T12:00:51.363Z,-0.05
2022-12-04T12:03:26.394Z,-0.17
2022-12-04T12:06:27.182Z,0.03
2022-12-04T12:08:53.566Z,-0.02
2022-12-04T12:11:27.204Z,0.00
2022-12-04T12:14:14.274Z,-0.03
2022-12-04T12:16:49.976Z,-0.07
2022-12-04T12:19:39.702Z,0.03
2022-12-04T12:22:26.560Z,-0.01
2022-12-04T12:25:17.011Z,0.02
2022-12-04T12:28:15.168Z,-0.05
2022-12-04T12:31:19.710Z,0.10
2022-12-04T12:33:51.863Z,0.03
2022-12-04T12:36:21.710Z,0.16
2022-12-04T12:38:56.791Z,0.10
2022-12-04T12:41:34.699Z,0.06
2022-12-04T12:44:06.042Z,-0.05
2022-12-04T12:46:48.804Z,-0.01
2022-12-04T12:49:15.291Z,-0.04
2022-12-04T12:51:58.333Z,-0.01
2022-12-04T12:54:53.256Z,0.01
2022-12-04T12:57:33.400Z,0.05
2022-12-04T13:00:22.251Z,0.00
2022-12-04T13:02:58.168Z,0.06
2022-12-04T13:05:33.733Z,0.04
2022-12-04T13:08:21.664Z,0.11
2022-12-04T13:11:02.151Z,0.01
2022-12-04T13:13:34.328Z,0.05
2022-12-04T13:16:11.187Z,0.11
2022-12-04T13:18:46.108Z,0.05
2022-12-04T13:21:26.331Z,0.07
2022-12-04T13:24:23.807Z,0.03
2022-12-04T13:27:03.894Z,0.10
2022-12-04T13:29:39.459Z,0.07
2022-12-04T13:32:27.794Z,0.12
2022-12-04T13:35:13.219Z,-0.02
2022-12-04T13:38:05.069Z,0.03
2022-12-04T13:40:44.943Z,0.03
2022-12-04T13:43:14.182Z,0.04
2022-12-04T13:45:41.388Z,0.05
2022-12-04T13:48:09.878Z,0.09
2022-12-04T13:50:39.406Z,0.01
2022-12-04T13:53:06.888Z,0.01
2022-12-04T13:55:36.611Z,0.12
2022-12-04T13:58:12.007Z,0.09
2022-12-04T14:00:44.060Z,0.14
2022-12-04T14:03:30.283Z,0.16
2022-12-04T14:05:56.932Z,0.08
2022-12-04T14:08:25.906Z,0.13
2022-12-04T14:11:04.059Z,0.19
2022-12-04T14:13:42.399Z,0.01
2022-12-04T14:16:29.903Z,0.09
2022-12-04T14:18:59.254Z,0.12
2022-12-04T14:21:26.519Z,0.08
2022-12-04T14:23:53.470Z,0.10
2022-12-04T14:26:48.894Z,0.16
2022-12-04T14:29:39.432Z,0.08
2022-12-04T14:32:13.603Z,0.08
2022-12-04T14:34:40.653Z,0.06
2022-12-04T14:37:17.453Z,0.10
2022-12-04T14:39:48.217Z,0.12
2022-12-04T14:42:21.844Z,0.15
2022-12-04T14:45:00.848Z,0.09
2022-12-04T14:47:55.340Z,0.09
2022-12-04T14:50:41.993Z,0.17
2022-12-04T14:53:26.546Z,0.14
2022-12-04T14:56:17.127Z,0.12
2022-12-04T14:58:44.147Z,0.15
2022-12-04T15:01:28.310Z,0.15
2022-12-04T15:03:59.087Z,0.27
2022-12-04T15:06:28.182Z,0.23
2022-12-04T15:09:17.263Z,0.11
2022-12-04T15:12:09.670Z,0.17
2022-12-04T15:14:44.997Z,0.13
2022-12-04T15:17:12.910Z,0.18
2022-12-04T15:19:40.075Z,0.26
2022-12-04T15:22:28.640Z,0.26
2022-12-04T15:24:55.949Z,0.28
2022-12-04T15:27:30.534Z,0.19
2022-12-04T15:30:00.302Z,0.30
2022-12-04T15:32:28.804Z,0.28
2022-12-04T15:35:00.854Z,0.28
2022-12-04T15:37:31.040Z,0.34
2022-12-04T15:39:58.413Z,0.31
2022-12-04T15:42:29.973Z,0.38
2022-12-04T15:45:08.624Z,0.29
2022-12-04T15:47:53.619Z,0.33
2022-12-04T15:50:19.991Z,0.31
2022-12-04T15:52:53.587Z,0.28
2022-12-04T15:55:22.392Z,0.28
2022-12-04T15:57:59.725Z,0.22
2022-12-04T16:00:28.448Z,0.36
2022-12-04T16:02:56.110Z,0.28
2022-12-04T16:05:22.482Z,0.31
2022-12-04T16:07:57.741Z,0.40
2022-12-04T16:10:30.585Z,0.25
2022-12-04T16:12:59.459Z,0.29
2022-12-04T16:15:36.135Z,0.26
2022-12-04T16:18:05.992Z,0.48
2022-12-04T16:20:38.106Z,0.40
2022-12-04T16:23:05.460Z,0.42
2022-12-04T16:25:32.315Z,0.41
2022-12-04T16:27:59.994Z,0.49
2022-12-04T16:30:28.335Z,0.43
2022-12-04T16:32:54.796Z,0.35
2022-12-04T16:35:21.474Z,0.48
2022-12-04T16:37:48.010Z,0.35
2022-12-04T16:40:15.418Z,0.38
2022-12-04T16:42:43.774Z,0.39
2022-12-04T16:45:24.924Z,0.33
2022-12-04T16:47:51.791Z,0.46
2022-12-04T16:50:18.551Z,0.48
2022-12-04T16:52:45.068Z,0.51
2022-12-04T16:55:40.906Z,0.55
2022-12-04T16:58:08.243Z,0.54
2022-12-04T17:00:36.423Z,0.44
2022-12-04T17:03:04.432Z,0.38
2022-12-04T17:05:33.430Z,0.48
2022-12-04T17:08:00.557Z,0.53
2022-12-04T17:10:27.444Z,0.58
2022-12-04T17:12:54.568Z,0.57
2022-12-04T17:15:21.526Z,0.51
2022-12-04T17:17:48.406Z,0.45
2022-12-04T17:20:17.156Z,0.48
2022-12-04T17:22:43.696Z,0.50
2022-12-04T17:25:11.232Z,0.58
2022-12-04T17:27:38.448Z,0.60
2022-12-04T17:30:06.730Z,0.49
2022-12-04T17:32:34.922Z,0.43
2022-12-04T17:35:03.600Z,0.54
2022-12-04T17:37:32.380Z,0.64
2022-12-04T17:39:58.933Z,0.64
2022-12-04T17:42:25.695Z,0.62
2022-12-04T17:44:52.175Z,0.68
2022-12-04T17:47:18.636Z,0.60
2022-12-04T17:49:45.073Z,0.64
2022-12-04T17:52:11.502Z,0.62
2022-12-04T17:54:38.111Z,0.51
2022-12-04T17:57:05.103Z,0.60
2022-12-04T17:59:31.680Z,0.60
2022-12-04T18:01:58.112Z,0.62
2022-12-04T18:04:25.000Z,0.70
2022-12-04T18:06:52.599Z,0.73
2022-12-04T18:09:19.351Z,0.63
2022-12-04T18:11:47.831Z,0.75
2022-12-04T18:14:17.523Z,0.66
2022-12-04T18:16:53.262Z,0.68
2022-12-04T18:19:22.207Z,0.65
2022-12-04T18:21:49.463Z,0.76
2022-12-04T18:24:16.796Z,0.67
2022-12-04T18:26:45.518Z,0.77
2022-12-04T18:29:15.406Z,0.74
2022-12-04T18:31:42.262Z,0.62
2022-12-04T18:34:08.885Z,0.77
2022-12-04T18:36:39.253Z,0.57
2022-12-04T18:39:11.354Z,0.71
2022-12-04T18:41:38.037Z,0.65
2022-12-04T18:44:05.636Z,0.62
2022-12-04T18:46:33.033Z,0.70
2022-12-04T18:49:00.159Z,0.83
2022-12-04T18:51:31.554Z,0.78
2022-12-04T18:54:00.739Z,0.76
2022-12-04T18:56:29.243Z,0.74
2022-12-04T18:59:00.831Z,0.76
2022-12-04T19:01:28.638Z,0.77
2022-12-04T19:03:58.696Z,0.82
2022-12-04T19:06:32.454Z,0.79
2022-12-04T19:09:00.722Z,0.73
2022-12-04T19:11:28.786Z,0.65
2022-12-04T19:13:55.611Z,0.78
2022-12-04T19:16:22.377Z,0.79
2022-12-04T19:18:48.915Z,0.77
2022-12-04T19:21:16.386Z,0.76
2022-12-04T19:23:48.344Z,0.71
2022-12-04T19:26:14.791Z,0.82
2022-12-04T19:28:41.246Z,0.87
2022-12-04T19:31:14.977Z,0.76
2022-12-04T19:33:41.601Z,0.72
2022-12-04T19:36:08.512Z,0.72
2022-12-04T19:38:35.490Z,0.83
2022-12-04T19:41:12.622Z,0.84
2022-12-04T19:43:41.601Z,0.78
2022-12-04T19:46:10.225Z,0.88
2022-12-04T19:48:39.968Z,0.82
2022-12-04T19:51:12.239Z,0.77
2022-12-04T19:53:41.052Z,0.79
2022-12-04T19:56:15.005Z,0.79
2022-12-04T19:58:42.477Z,0.66
2022-12-04T20:01:12.951Z,0.76
2022-12-04T20:03:39.941Z,0.83
2022-12-04T20:06:09.825Z,0.80
2022-12-04T20:08:38.077Z,0.83
2022-12-04T20:11:07.791Z,0.92
2022-12-04T20:13:38.921Z,0.91
2022-12-04T20:16:11.477Z,0.88
2022-12-04T20:18:39.892Z,0.85
2022-12-04T20:21:11.133Z,0.88
2022-12-04T20:23:39.233Z,0.88
2022-12-04T20:26:07.900Z,0.90
2022-12-04T20:28:34.699Z,0.77
2022-12-04T20:31:02.256Z,0.91
2022-12-04T20:33:28.708Z,0.90
2022-12-04T20:35:55.465Z,0.75
2022-12-04T20:38:21.934Z,0.82
2022-12-04T20:40:48.381Z,0.97
2022-12-04T20:43:14.836Z,0.93
2022-12-04T20:45:41.467Z,0.95
2022-12-04T20:48:08.468Z,0.89
2022-12-04T20:50:36.142Z,0.83
2022-12-04T20:53:07.609Z,0.87
2022-12-04T20:55:34.172Z,0.81
2022-12-04T20:58:00.639Z,0.80
2022-12-04T21:00:28.635Z,0.87
2022-12-04T21:02:55.125Z,0.83
2022-12-04T21:05:21.938Z,0.95
2022-12-04T21:07:48.393Z,0.94
2022-12-04T21:10:15.007Z,0.95
2022-12-04T21:13:00.238Z,0.91
2022-12-04T21:15:48.230Z,0.98
2022-12-04T21:18:14.747Z,0.96
2022-12-04T21:20:41.224Z,0.84
2022-12-04T21:23:07.836Z,0.87
2022-12-04T21:25:34.234Z,0.84
2022-12-04T21:28:03.003Z,1.03
2022-12-04T21:30:29.524Z,0.98
2022-12-04T21:32:55.991Z,0.91
2022-12-04T21:35:22.452Z,0.83
2022-12-04T21:37:48.866Z,0.92
2022-12-04T21:40:15.446Z,0.97
2022-12-04T21:42:43.780Z,0.99
2022-12-04T21:45:10.607Z,0.86
2022-12-04T21:47:37.500Z,0.85
2022-12-04T21:50:05.552Z,1.01
2022-12-04T21:52:32.456Z,0.96
2022-12-04T21:54:58.927Z,0.88
2022-12-04T21:57:27.423Z,0.84
2022-12-04T21:59:54.004Z,0.96
2022-12-04T22:02:21.182Z,0.91
2022-12-04T22:04:47.807Z,0.98
2022-12-04T22:07:14.290Z,0.90
2022-12-04T22:09:42.404Z,1.00
2022-12-04T22:12:33.195Z,1.02
2022-12-04T22:14:56.082Z,0.91
2022-12-04T22:17:22.535Z,1.00
2022-12-04T22:19:48.991Z,0.86
2022-12-04T22:22:15.440Z,0.96
2022-12-04T22:24:42.079Z,1.00
2022-12-04T22:27:14.741Z,0.92
2022-12-04T22:30:02.133Z,0.90
2022-12-04T22:32:27.924Z,0.98
2022-12-04T22:34:54.372Z,1.00
2022-12-04T22:37:20.788Z,1.09
2022-12-04T22:39:47.329Z,0.97
2022-12-04T22:42:13.794Z,1.06
2022-12-04T22:44:40.239Z,1.01
2022-12-04T22:47:06.950Z,0.96
2022-12-04T22:49:33.564Z,0.96
2022-12-04T22:52:00.021Z,1.05
2022-12-04T22:54:27.907Z,1.14
2022-12-04T22:56:54.407Z,1.10
2022-12-04T22:59:20.877Z,1.00
2022-12-04T23:01:47.295Z,1.03
2022-12-04T23:04:13.730Z,0.98
2022-12-04T23:06:40.213Z,1.09
2022-12-04T23:09:12.639Z,1.08
2022-12-04T23:11:40.154Z,1.13
2022-12-04T23:14:09.113Z,1.11
2022-12-04T23:16:38.356Z,1.06
2022-12-04T23:19:07.518Z,1.10
2022-12-04T23:21:34.729Z,1.05
2022-12-04T23:24:01.361Z,1.10
2022-12-04T23:26:32.584Z,1.15
2022-12-04T23:28:59.484Z,1.09
2022-12-04T23:31:26.012Z,1.18
2022-12-04T23:33:52.635Z,1.09
2022-12-04T23:36:19.388Z,1.06
2022-12-04T23:38:46.356Z,1.07
2022-12-04T23:41:18.356Z,1.07
2022-12-04T23:43:45.410Z,1.15
2022-12-04T23:46:14.739Z,1.18
2022-12-04T23:48:43.849Z,1.10
2022-12-04T23:51:12.696Z,1.10
2022-12-04T23:53:39.183Z,1.09
2022-12-04T23:56:23.779Z,1.00
2022-12-04T23:58:52.681Z,1.05
